createdAt,value
2018-02-18T00:01:01.682Z,0.30
2018-02-18T00:03:28.676Z,0.20
2018-02-18T00:05:55.647Z,0.20
2018-02-18T00:08:22.623Z,0.20
2018-02-18T00:10:49.599Z,0.20
2018-02-18T00:13:17.349Z,0.20
2018-02-18T00:15:44.304Z,0.10
2018-02-18T00:18:11.291Z,0.20
2018-02-18T00:20:39.028Z,0.10
2018-02-18T00:23:06.094Z,0.10
2018-02-18T00:25:33.131Z,0.10
2018-02-18T00:28:00.196Z,0.10
2018-02-18T00:30:27.262Z,0.10
2018-02-18T00:32:54.247Z,0.10
2018-02-18T00:35:21.272Z,0.10
2018-02-18T00:37:48.344Z,0.10
2018-02-18T00:40:15.388Z,0.10
2018-02-18T00:42:42.384Z,0.10
2018-02-18T00:45:09.407Z,0.10
2018-02-18T00:47:36.392Z,0.10
2018-02-18T00:50:03.363Z,0.10
2018-02-18T00:52:30.348Z,0.00
2018-02-18T00:54:58.086Z,0.00
2018-02-18T00:57:25.069Z,0.00
2018-02-18T00:59:52.042Z,0.00
2018-02-18T01:02:19.023Z,0.00
2018-02-18T01:04:46.001Z,0.00
2018-02-18T01:07:12.995Z,0.00
2018-02-18T01:09:39.971Z,0.00
2018-02-18T01:12:07.722Z,0.00
2018-02-18T01:14:34.752Z,0.00
2018-02-18T01:17:01.732Z,0.00
2018-02-18T01:19:28.768Z,0.00
2018-02-18T01:21:55.746Z,0.00
2018-02-18T01:24:22.799Z,-0.10
2018-02-18T01:26:49.775Z,-0.10
2018-02-18T01:29:16.752Z,-0.10
2018-02-18T01:31:44.503Z,-0.10
2018-02-18T01:34:11.475Z,-0.10
2018-02-18T01:36:39.315Z,-0.20
2018-02-18T01:39:06.279Z,-0.20
2018-02-18T01:41:33.263Z,-0.20
2018-02-18T01:44:00.291Z,-0.20
2018-02-18T01:46:27.275Z,-0.20
2018-02-18T01:48:54.251Z,-0.20
2018-02-18T01:51:21.271Z,-0.30
2018-02-18T01:53:48.330Z,-0.30
2018-02-18T01:56:15.388Z,-0.30
2018-02-18T01:58:42.360Z,-0.40
2018-02-18T02:01:09.347Z,-0.40
2018-02-18T02:03:36.367Z,-0.40
2018-02-18T02:06:03.386Z,-0.40
2018-02-18T02:08:31.136Z,-0.50
2018-02-18T02:10:58.137Z,-0.50
2018-02-18T02:13:25.871Z,-0.50
2018-02-18T02:15:52.836Z,-0.50
2018-02-18T02:18:19.839Z,-0.50
2018-02-18T02:20:46.910Z,-0.50
2018-02-18T02:23:14.015Z,-0.60
2018-02-18T02:25:41.755Z,-0.60
2018-02-18T02:28:08.743Z,-0.70
2018-02-18T02:30:35.792Z,-0.70
2018-02-18T02:33:02.827Z,-0.70
2018-02-18T02:35:29.969Z,-0.70
2018-02-18T02:37:57.703Z,-0.80
2018-02-18T02:40:24.723Z,-0.80
2018-02-18T02:42:51.799Z,-0.80
2018-02-18T02:45:18.772Z,-0.80
2018-02-18T02:47:45.781Z,-0.80
2018-02-18T02:50:12.892Z,-0.80
2018-02-18T02:52:39.872Z,-0.80
2018-02-18T02:55:07.609Z,-0.80
2018-02-18T02:57:34.601Z,-0.80
2018-02-18T03:00:01.583Z,-0.80
2018-02-18T03:02:29.399Z,-0.90
2018-02-18T03:04:56.363Z,-0.90
2018-02-18T03:07:23.406Z,-0.90
2018-02-18T03:09:50.383Z,-0.90
2018-02-18T03:12:17.368Z,-0.90
2018-02-18T03:14:44.347Z,-0.90
2018-02-18T03:17:12.100Z,-1.00
2018-02-18T03:19:39.122Z,-1.00
2018-02-18T03:22:06.184Z,-1.00
2018-02-18T03:24:33.164Z,-1.00
2018-02-18T03:27:00.203Z,-1.00
2018-02-18T03:29:27.258Z,-1.00
2018-02-18T03:31:54.319Z,-1.00
2018-02-18T03:34:21.378Z,-1.00
2018-02-18T03:36:48.442Z,-1.00
2018-02-18T03:39:15.419Z,-1.00
2018-02-18T03:41:42.464Z,-1.10
2018-02-18T03:44:09.519Z,-1.10
2018-02-18T03:46:36.579Z,-1.10
2018-02-18T03:49:03.559Z,-1.10
2018-02-18T03:51:30.582Z,-1.10
2018-02-18T03:53:58.303Z,-1.20
2018-02-18T03:56:25.286Z,-1.20
2018-02-18T03:58:53.111Z,-1.20
2018-02-18T04:01:20.083Z,-1.20
2018-02-18T04:03:47.127Z,-1.20
2018-02-18T04:06:14.288Z,-1.20
2018-02-18T04:08:41.351Z,-1.20
2018-02-18T04:11:08.327Z,-1.20
2018-02-18T04:13:35.311Z,-1.20
2018-02-18T04:16:03.052Z,-1.30
2018-02-18T04:18:30.107Z,-1.30
2018-02-18T04:20:57.099Z,-1.30
2018-02-18T04:23:24.080Z,-1.30
2018-02-18T04:25:51.907Z,-1.40
2018-02-18T04:28:18.884Z,-1.40
2018-02-18T04:30:45.916Z,-1.40
2018-02-18T04:33:12.904Z,-1.40
2018-02-18T04:35:39.876Z,-1.40
2018-02-18T04:38:06.855Z,-1.40
2018-02-18T04:40:34.675Z,-1.50
2018-02-18T04:43:01.664Z,-1.50
2018-02-18T04:45:28.688Z,-1.50
2018-02-18T04:47:55.675Z,-1.50
2018-02-18T04:50:22.643Z,-1.50
2018-02-18T04:52:49.655Z,-1.60
2018-02-18T04:55:16.731Z,-1.60
2018-02-18T04:57:43.784Z,-1.60
2018-02-18T05:00:10.845Z,-1.60
2018-02-18T05:02:37.844Z,-1.60
2018-02-18T05:05:04.864Z,-1.60
2018-02-18T05:07:31.922Z,-1.60
2018-02-18T05:09:58.992Z,-1.70
2018-02-18T05:12:26.046Z,-1.70
2018-02-18T05:14:53.107Z,-1.70
2018-02-18T05:17:20.091Z,-1.70
2018-02-18T05:19:47.124Z,-1.70
2018-02-18T05:22:14.115Z,-1.70
2018-02-18T05:24:41.139Z,-1.80
2018-02-18T05:27:08.119Z,-1.80
2018-02-18T05:29:35.159Z,-1.80
2018-02-18T05:32:02.148Z,-1.80
2018-02-18T05:34:29.181Z,-1.80
2018-02-18T05:36:56.150Z,-1.80
2018-02-18T05:39:23.136Z,-1.80
2018-02-18T05:41:50.152Z,-1.80
2018-02-18T05:44:17.212Z,-1.80
2018-02-18T05:46:44.188Z,-1.80
2018-02-18T05:49:11.233Z,-1.80
2018-02-18T05:51:38.221Z,-1.80
2018-02-18T05:54:05.247Z,-1.80
2018-02-18T05:56:32.224Z,-1.80
2018-02-18T05:58:59.268Z,-1.80
2018-02-18T06:01:26.239Z,-1.80
2018-02-18T06:03:53.227Z,-1.80
2018-02-18T06:06:20.196Z,-1.80
2018-02-18T06:08:48.027Z,-1.90
2018-02-18T06:11:14.991Z,-1.90
2018-02-18T06:13:42.035Z,-1.90
2018-02-18T06:16:09.016Z,-1.90
2018-02-18T06:18:36.055Z,-1.90
2018-02-18T06:21:03.115Z,-1.90
2018-02-18T06:23:30.100Z,-2.00
2018-02-18T06:25:57.134Z,-2.00
2018-02-18T06:28:24.120Z,-2.00
2018-02-18T06:30:51.096Z,-2.00
2018-02-18T06:33:18.112Z,-2.00
2018-02-18T06:35:45.211Z,-2.00
2018-02-18T06:38:12.247Z,-2.00
2018-02-18T06:40:39.171Z,-2.00
2018-02-18T06:43:06.247Z,-2.00
2018-02-18T06:45:33.223Z,-2.00
2018-02-18T06:48:00.202Z,-2.00
2018-02-18T06:50:27.174Z,-2.00
2018-02-18T06:52:54.946Z,-2.00
2018-02-18T06:55:21.988Z,-2.00
2018-02-18T06:57:48.968Z,-2.00
2018-02-18T07:00:16.703Z,-1.90
2018-02-18T07:02:43.750Z,-2.00
2018-02-18T07:05:10.723Z,-1.90
2018-02-18T07:07:37.975Z,-1.80
2018-02-18T07:10:05.043Z,-1.80
2018-02-18T07:12:32.031Z,-1.70
2018-02-18T07:14:59.003Z,-1.70
2018-02-18T07:17:25.990Z,-1.70
2018-02-18T07:19:52.971Z,-1.60
2018-02-18T07:22:20.035Z,-1.50
2018-02-18T07:24:47.099Z,-1.40
2018-02-18T07:27:14.079Z,-1.40
2018-02-18T07:29:41.107Z,-1.30
2018-02-18T07:32:08.079Z,-1.20
2018-02-18T07:34:35.131Z,-1.20
2018-02-18T07:37:02.152Z,-1.10
2018-02-18T07:39:29.900Z,-1.00
2018-02-18T07:41:57.004Z,-1.00
2018-02-18T07:44:24.736Z,-0.80
2018-02-18T07:46:51.708Z,-0.90
2018-02-18T07:49:19.552Z,-0.70
2018-02-18T07:51:46.626Z,-0.70
2018-02-18T07:54:13.659Z,-0.70
2018-02-18T07:56:40.635Z,-0.60
2018-02-18T07:59:07.616Z,-0.50
2018-02-18T08:01:34.590Z,-0.40
2018-02-18T08:04:02.431Z,-0.30
2018-02-18T08:06:29.383Z,-0.30
2018-02-18T08:08:56.426Z,-0.20
2018-02-18T08:11:23.491Z,-0.10
2018-02-18T08:13:50.548Z,-0.10
2018-02-18T08:16:17.611Z,0.10
2018-02-18T08:18:44.603Z,0.10
2018-02-18T08:21:11.630Z,0.20
2018-02-18T08:23:38.611Z,0.30
2018-02-18T08:26:06.391Z,0.40
2018-02-18T08:28:33.371Z,0.50
2018-02-18T08:31:00.335Z,0.60
2018-02-18T08:33:28.155Z,0.70
2018-02-18T08:35:55.123Z,0.70
2018-02-18T08:38:22.199Z,0.80
2018-02-18T08:40:49.163Z,0.90
2018-02-18T08:43:16.147Z,1.00
2018-02-18T08:45:43.972Z,1.20
2018-02-18T08:48:11.009Z,1.10
2018-02-18T08:50:38.803Z,1.40
2018-02-18T08:53:05.780Z,1.40
2018-02-18T08:55:32.764Z,1.50
2018-02-18T08:57:59.747Z,1.70
2018-02-18T09:00:27.484Z,1.90
2018-02-18T09:02:54.451Z,1.80
2018-02-18T09:05:21.432Z,1.90
2018-02-18T09:07:49.180Z,2.00
2018-02-18T09:10:16.220Z,2.00
2018-02-18T09:12:43.199Z,2.10
2018-02-18T09:15:10.176Z,2.20
2018-02-18T09:17:37.188Z,2.30
2018-02-18T09:20:04.260Z,2.40
2018-02-18T09:22:31.231Z,2.40
2018-02-18T09:24:58.259Z,2.60
2018-02-18T09:27:25.231Z,2.60
2018-02-18T09:29:52.219Z,2.70
2018-02-18T09:32:19.178Z,2.80
2018-02-18T09:34:46.163Z,2.90
2018-02-18T09:37:13.167Z,3.00
2018-02-18T09:39:40.219Z,3.10
2018-02-18T09:42:07.192Z,3.20
2018-02-18T09:44:34.163Z,3.30
2018-02-18T09:47:01.199Z,3.40
2018-02-18T09:49:28.176Z,3.50
2018-02-18T09:51:55.212Z,3.70
2018-02-18T09:54:22.268Z,3.80
2018-02-18T09:56:49.328Z,3.90
2018-02-18T09:59:16.306Z,4.00
2018-02-18T10:01:43.273Z,4.10
2018-02-18T10:04:10.248Z,4.30
2018-02-18T10:06:37.220Z,4.40
2018-02-18T10:09:04.975Z,4.70
2018-02-18T10:11:31.946Z,4.70
2018-02-18T10:13:58.920Z,4.80
2018-02-18T10:16:26.815Z,5.10
2018-02-18T10:18:54.595Z,5.20
2018-02-18T10:21:22.311Z,5.30
2018-02-18T10:23:49.284Z,5.30
2018-02-18T10:26:16.311Z,5.50
2018-02-18T10:28:43.371Z,5.60
2018-02-18T10:31:10.351Z,5.70
2018-02-18T10:33:37.378Z,5.80
2018-02-18T10:36:04.360Z,5.90
2018-02-18T10:38:31.399Z,6.00
2018-02-18T10:40:58.373Z,6.00
2018-02-18T10:43:25.864Z,6.10
2018-02-18T10:45:52.892Z,6.30
2018-02-18T10:48:19.873Z,6.70
2018-02-18T10:50:46.861Z,8.20
2018-02-18T10:53:13.837Z,9.50
2018-02-18T10:55:41.598Z,10.00
2018-02-18T10:58:08.627Z,9.90
2018-02-18T11:00:35.674Z,11.30
2018-02-18T11:03:02.731Z,10.90
2018-02-18T11:05:29.711Z,10.20
2018-02-18T11:07:56.695Z,10.00
2018-02-18T11:10:23.707Z,11.00
2018-02-18T11:12:50.768Z,13.40
2018-02-18T11:15:17.829Z,14.60
2018-02-18T11:17:44.904Z,14.00
2018-02-18T11:20:11.880Z,13.00
2018-02-18T11:22:38.851Z,12.30
2018-02-18T11:25:06.684Z,12.60
2018-02-18T11:27:33.751Z,12.60
2018-02-18T11:30:00.739Z,13.40
2018-02-18T11:32:27.712Z,13.90
2018-02-18T11:34:55.539Z,11.70
2018-02-18T11:37:22.604Z,11.70
2018-02-18T11:39:49.988Z,10.80
2018-02-18T11:42:16.960Z,10.00
2018-02-18T11:44:43.979Z,9.60
2018-02-18T11:47:10.951Z,9.40
2018-02-18T11:49:37.940Z,9.10
2018-02-18T11:52:05.687Z,9.00
2018-02-18T11:54:32.663Z,8.90
2018-02-18T11:56:59.691Z,8.90
2018-02-18T11:59:26.759Z,8.90
2018-02-18T12:01:53.816Z,8.80
2018-02-18T12:04:20.880Z,8.80
2018-02-18T12:06:47.939Z,8.90
2018-02-18T12:09:15.103Z,8.90
2018-02-18T12:11:42.075Z,8.90
2018-02-18T12:14:09.116Z,9.00
2018-02-18T12:16:36.176Z,9.00
2018-02-18T12:19:03.236Z,9.10
2018-02-18T12:21:30.209Z,9.20
2018-02-18T12:23:57.254Z,9.30
2018-02-18T12:26:24.223Z,9.60
2018-02-18T12:28:51.298Z,9.90
2018-02-18T12:31:18.277Z,10.40
2018-02-18T12:33:45.424Z,11.60
2018-02-18T12:36:12.415Z,13.20
2018-02-18T12:38:40.231Z,16.10
2018-02-18T12:41:07.215Z,16.10
2018-02-18T12:43:34.252Z,16.80
2018-02-18T12:46:01.239Z,17.70
2018-02-18T12:48:28.211Z,18.10
2018-02-18T12:50:55.959Z,18.20
2018-02-18T12:53:22.939Z,18.20
2018-02-18T12:55:51.426Z,18.70
2018-02-18T12:58:18.400Z,18.70
2018-02-18T13:00:46.232Z,18.20
2018-02-18T13:03:13.292Z,18.10
2018-02-18T13:05:40.383Z,18.30
2018-02-18T13:08:07.355Z,17.90
2018-02-18T13:10:35.195Z,18.40
2018-02-18T13:13:02.187Z,18.40
2018-02-18T13:15:29.207Z,18.20
2018-02-18T13:17:56.183Z,18.50
2018-02-18T13:20:23.172Z,18.60
2018-02-18T13:22:50.913Z,18.50
2018-02-18T13:25:17.969Z,18.40
2018-02-18T13:27:44.943Z,18.40
2018-02-18T13:30:11.946Z,18.90
2018-02-18T13:32:39.811Z,19.30
2018-02-18T13:35:06.768Z,19.30
2018-02-18T13:37:34.506Z,19.40
2018-02-18T13:40:01.547Z,19.40
2018-02-18T13:42:28.616Z,19.50
2018-02-18T13:44:55.632Z,19.60
2018-02-18T13:47:23.471Z,19.60
2018-02-18T13:49:50.514Z,19.50
2018-02-18T13:52:17.484Z,19.60
2018-02-18T13:54:44.462Z,19.30
2018-02-18T13:57:11.459Z,19.30
2018-02-18T13:59:39.195Z,19.00
2018-02-18T14:02:06.172Z,19.00
2018-02-18T14:04:33.922Z,19.00
2018-02-18T14:07:00.954Z,19.00
2018-02-18T14:09:28.018Z,19.00
2018-02-18T14:11:55.079Z,18.80
2018-02-18T14:14:22.077Z,18.90
2018-02-18T14:16:49.824Z,18.80
2018-02-18T14:19:16.796Z,18.80
2018-02-18T14:21:44.651Z,17.90
2018-02-18T14:24:11.631Z,17.90
2018-02-18T14:26:38.615Z,17.10
2018-02-18T14:29:06.359Z,15.40
2018-02-18T14:31:33.339Z,15.40
2018-02-18T14:34:00.355Z,14.40
2018-02-18T14:36:27.348Z,13.20
2018-02-18T14:41:46.684Z,11.80
2018-02-18T14:44:19.464Z,11.20
2018-02-18T14:46:52.387Z,10.90
2018-02-18T14:49:25.295Z,10.50
2018-02-18T14:51:58.201Z,10.30
2018-02-18T14:54:31.084Z,9.80
2018-02-18T14:57:04.103Z,9.60
2018-02-18T14:59:31.117Z,9.40
2018-02-18T15:01:58.183Z,9.10
2018-02-18T15:04:25.151Z,9.00
2018-02-18T15:06:52.142Z,8.90
2018-02-18T15:09:19.111Z,8.70
2018-02-18T15:11:46.931Z,8.40
2018-02-18T15:14:13.994Z,8.40
2018-02-18T15:16:40.971Z,8.30
2018-02-18T15:19:08.020Z,8.30
2018-02-18T15:21:35.015Z,8.20
2018-02-18T15:24:03.564Z,8.00
2018-02-18T15:26:30.623Z,8.00
2018-02-18T15:28:57.604Z,8.00
2018-02-18T15:31:24.570Z,7.90
2018-02-18T15:33:51.545Z,7.90
2018-02-18T15:36:18.523Z,7.80
2018-02-18T15:38:46.256Z,7.50
2018-02-18T15:41:13.399Z,7.50
2018-02-18T15:43:40.452Z,7.40
2018-02-18T15:46:07.430Z,7.30
2018-02-18T15:48:34.400Z,7.20
2018-02-18T15:51:01.400Z,7.10
2018-02-18T15:53:28.372Z,7.10
2018-02-18T15:55:55.379Z,7.00
2018-02-18T15:58:22.343Z,7.00
2018-02-18T16:00:49.367Z,6.90
2018-02-18T16:03:16.365Z,6.90
2018-02-18T16:05:43.373Z,6.90
2018-02-18T16:08:11.180Z,6.80
2018-02-18T16:10:38.219Z,6.80
2018-02-18T16:13:05.190Z,6.80
2018-02-18T16:15:32.159Z,6.70
2018-02-18T16:17:59.126Z,6.70
2018-02-18T16:20:26.172Z,6.60
2018-02-18T16:22:53.124Z,6.50
2018-02-18T16:25:20.174Z,6.40
2018-02-18T16:27:47.156Z,6.30
2018-02-18T16:30:14.196Z,6.20
2018-02-18T16:32:41.180Z,6.10
2018-02-18T16:35:08.151Z,6.00
2018-02-18T16:37:35.167Z,5.90
2018-02-18T16:40:02.155Z,5.80
2018-02-18T16:42:29.182Z,5.70
2018-02-18T16:44:56.226Z,5.50
2018-02-18T16:47:24.023Z,5.30
2018-02-18T16:49:50.991Z,5.30
2018-02-18T16:52:18.044Z,5.20
2018-02-18T16:54:45.109Z,5.10
2018-02-18T16:57:12.242Z,5.00
2018-02-18T16:59:40.040Z,4.80
2018-02-18T17:02:07.015Z,4.80
2018-02-18T17:04:34.058Z,4.70
2018-02-18T17:07:01.119Z,4.60
2018-02-18T17:09:28.083Z,4.50
2018-02-18T17:11:55.117Z,4.30
2018-02-18T17:14:22.840Z,4.20
2018-02-18T17:16:49.875Z,4.10
2018-02-18T17:19:17.980Z,4.00
2018-02-18T17:21:44.955Z,3.90
2018-02-18T17:24:12.028Z,3.80
2018-02-18T17:26:39.783Z,3.70
2018-02-18T17:29:06.793Z,3.60
2018-02-18T17:31:33.765Z,3.60
2018-02-18T17:34:00.748Z,3.60
2018-02-18T17:36:28.659Z,3.60
2018-02-18T17:38:55.870Z,3.50
2018-02-18T17:41:23.393Z,3.50
2018-02-18T17:43:50.382Z,3.40
2018-02-18T17:46:18.115Z,3.40
2018-02-18T17:48:45.323Z,3.40
2018-02-18T17:51:13.391Z,3.40
2018-02-18T17:53:41.920Z,3.40
2018-02-18T17:56:09.027Z,3.40
2018-02-18T17:58:36.060Z,3.50
2018-02-18T18:01:03.042Z,3.50
2018-02-18T18:03:30.076Z,3.60
2018-02-18T18:05:57.067Z,3.60
2018-02-18T18:08:24.907Z,3.50
2018-02-18T18:10:51.882Z,3.50
2018-02-18T18:13:18.855Z,3.40
2018-02-18T18:15:45.823Z,3.30
2018-02-18T18:18:13.588Z,3.10
2018-02-18T18:20:40.620Z,3.10
2018-02-18T18:23:07.717Z,3.10
2018-02-18T18:25:34.690Z,3.10
2018-02-18T18:28:01.744Z,3.10
2018-02-18T18:30:29.484Z,3.20
2018-02-18T18:32:56.580Z,3.20
2018-02-18T18:35:23.522Z,3.30
2018-02-18T18:37:50.488Z,3.30
2018-02-18T18:40:17.505Z,3.30
2018-02-18T18:42:44.484Z,3.30
2018-02-18T18:45:11.477Z,3.30
2018-02-18T18:47:39.291Z,3.40
2018-02-18T18:50:06.351Z,3.30
2018-02-18T18:52:33.334Z,3.40
2018-02-18T18:55:00.371Z,3.30
2018-02-18T18:57:27.890Z,3.30
2018-02-18T18:59:54.917Z,3.30
2018-02-18T19:02:21.892Z,3.30
2018-02-18T19:04:48.863Z,3.20
2018-02-18T19:07:15.844Z,3.20
2018-02-18T19:09:42.832Z,3.20
2018-02-18T19:12:09.787Z,3.20
2018-02-18T19:14:37.802Z,3.10
2018-02-18T19:17:06.299Z,3.10
2018-02-18T19:19:33.272Z,3.10
2018-02-18T19:22:00.253Z,3.10
2018-02-18T19:24:28.064Z,3.00
2018-02-18T19:26:55.123Z,3.00
2018-02-18T19:29:22.143Z,3.00
2018-02-18T19:31:49.975Z,2.80
2018-02-18T19:34:16.952Z,2.80
2018-02-18T19:36:43.935Z,2.70
2018-02-18T19:39:11.772Z,2.60
2018-02-18T19:41:38.767Z,2.60
2018-02-18T19:44:06.508Z,2.50
2018-02-18T19:46:33.484Z,2.40
2018-02-18T19:49:00.513Z,2.40
2018-02-18T19:51:27.492Z,2.50
2018-02-18T19:53:54.451Z,2.40
2018-02-18T19:56:21.451Z,2.40
2018-02-18T19:58:50.183Z,2.40
2018-02-18T20:01:17.159Z,2.40
2018-02-18T20:03:44.136Z,2.40
2018-02-18T20:06:11.159Z,2.40
2018-02-18T20:08:38.131Z,2.40
2018-02-18T20:11:05.183Z,2.40
2018-02-18T20:13:32.240Z,2.40
2018-02-18T20:15:59.219Z,2.40
2018-02-18T20:18:26.199Z,2.50
2018-02-18T20:20:53.168Z,2.50
2018-02-18T20:23:21.916Z,2.60
2018-02-18T20:25:48.897Z,2.60
2018-02-18T20:28:16.370Z,2.60
2018-02-18T20:30:43.335Z,2.60
2018-02-18T20:33:10.311Z,2.60
2018-02-18T20:35:38.047Z,2.60
2018-02-18T20:38:05.998Z,2.60
2018-02-18T20:40:33.791Z,2.60
2018-02-18T20:43:00.763Z,2.60
2018-02-18T20:45:27.734Z,2.50
2018-02-18T20:47:54.710Z,2.50
2018-02-18T20:50:21.675Z,2.50
2018-02-18T20:52:49.431Z,2.50
2018-02-18T20:55:16.411Z,2.40
2018-02-18T20:57:44.155Z,2.40
2018-02-18T21:00:11.208Z,2.40
2018-02-18T21:02:38.183Z,2.40
2018-02-18T21:05:05.155Z,2.40
2018-02-18T21:07:32.140Z,2.40
2018-02-18T21:09:59.875Z,2.40
2018-02-18T21:12:26.916Z,2.40
2018-02-18T21:14:53.979Z,2.40
2018-02-18T21:17:21.031Z,2.40
2018-02-18T21:19:47.997Z,2.40
2018-02-18T21:22:14.975Z,2.40
2018-02-18T21:24:42.003Z,2.40
2018-02-18T21:27:09.055Z,2.40
2018-02-18T21:29:36.028Z,2.50
2018-02-18T21:32:03.028Z,2.50
2018-02-18T21:34:30.859Z,2.50
2018-02-18T21:36:57.910Z,2.40
2018-02-18T21:39:24.895Z,2.50
2018-02-18T21:41:51.939Z,2.50
2018-02-18T21:44:19.016Z,2.50
2018-02-18T21:46:46.066Z,2.40
2018-02-18T21:49:13.111Z,2.30
2018-02-18T21:51:40.092Z,2.30
2018-02-18T21:54:07.139Z,2.20
2018-02-18T21:56:34.112Z,2.20
2018-02-18T21:59:01.096Z,2.10
2018-02-18T22:01:28.083Z,2.10
2018-02-18T22:03:55.059Z,2.00
2018-02-18T22:06:22.027Z,2.00
2018-02-18T22:08:49.003Z,1.90
2018-02-18T22:11:16.048Z,1.80
2018-02-18T22:13:43.042Z,1.80
2018-02-18T22:16:10.012Z,1.70
2018-02-18T22:18:37.760Z,1.50
2018-02-18T22:21:04.750Z,1.50
2018-02-18T22:23:31.759Z,1.50
2018-02-18T22:25:58.821Z,1.40
2018-02-18T22:28:25.800Z,1.30
2018-02-18T22:30:52.773Z,1.30
2018-02-18T22:33:19.744Z,1.20
2018-02-18T22:35:47.591Z,1.10
2018-02-18T22:38:14.627Z,1.10
2018-02-18T22:40:41.683Z,1.10
2018-02-18T22:43:08.659Z,1.10
2018-02-18T22:45:35.724Z,1.10
2018-02-18T22:48:02.679Z,1.00
2018-02-18T22:50:29.647Z,1.00
2018-02-18T22:52:56.623Z,1.00
2018-02-18T22:55:23.603Z,0.90
2018-02-18T22:57:51.361Z,0.90
2018-02-18T23:00:19.215Z,0.90
2018-02-18T23:02:46.256Z,0.90
2018-02-18T23:05:19.128Z,0.90
2018-02-18T23:07:46.104Z,0.90
2018-02-18T23:10:13.118Z,0.90
2018-02-18T23:12:40.132Z,0.90
2018-02-18T23:15:07.122Z,0.90
2018-02-18T23:17:34.100Z,1.00
2018-02-18T23:20:01.840Z,1.00
2018-02-18T23:22:28.879Z,1.00
2018-02-18T23:24:55.852Z,1.00
2018-02-18T23:27:22.982Z,1.00
2018-02-18T23:29:50.704Z,1.10
2018-02-18T23:32:17.747Z,1.10
2018-02-18T23:34:44.719Z,1.10
2018-02-18T23:37:11.691Z,1.10
2018-02-18T23:39:38.663Z,1.20
2018-02-18T23:42:06.400Z,1.20
2018-02-18T23:44:33.446Z,1.20
2018-02-18T23:47:00.423Z,1.20
2018-02-18T23:49:27.407Z,1.20
2018-02-18T23:51:54.423Z,1.20
2018-02-18T23:54:21.428Z,1.30
2018-02-18T23:56:48.371Z,1.30
2018-02-18T23:59:15.356Z,1.30
